Louisville, Nebraska
Current Conditions -  °F | °C
As of 1:55 AM on Friday 31 Oct 2014 (Local Time) from KPMV Reporting Station
Overcast Overcast  
Wind Chill: -1°   Ceiling: 2500
Heat Index:   Visibility: 10mi
Dew Point: -3°   Wind: 16mph
Humidity: 63%   Direction: 350°N
Pressure: 30.4"   Gusts: 28mph
Location:  41°N, 96.16°W
Report Text: KPMV 310655Z AUTO 35014G24KT 10SM OVC025 04/M03 A3040 RMK AO2 T00371027
Loading
Personal Weather Stations






























Interactive Weather Map
Tropical Storm Tracking
New forecast layout! Learn more

10-Day Weather Forecast

Advertisements
Track Severe Weather on mobile